メインページ
METAR-TAF:

METAR-TAF

空港 :

ミッドウェー島, アメリカ合衆国

緯度: 28-13N, 経度: 177-22W, 海抜: 4m

現時点の気象観測

当レポートは53分前の02:56(UTC)に作成
の風 12kt
気温 24°C
湿度 83%
気圧 1019 hPa
高度10000ftの千切れ雲あり

METAR: PMDY 250256Z AUTO 19012KT BKN100 24/21 A3009 RMK AO2 SLP188 60001 T02440211 55010 PWINO $

時間: 17:49 (03:49 UTC)

予報

当レポートは4時間5分前の23:44(UTC)に作成
予報は25日の 00時(UTC)から 25日の 24時(UTC)まで有効
の風 12kt
視程: 10km
高度2500ftの雲は散在している
高度4500ftの千切れ雲あり
近辺でにわか雨

TAF: PMDY 242344Z 2500/2524 19012KT P6SM VCSH SCT025 BKN045

4,000以上の空港の気象観測と天気予報(METAR報とTAF報)

利用可能な観測所は地図上に黄色い丸と赤い丸で示す。

丸の上にカーソルを重ねると観測所名を参照できる。

次にクリックすると気象観測と天気予報を参照できる。

マップの切り替え:黒色「×」印の緑ボタンをクリックして拡大、「-」印の緑ボタンをクリックして縮小、緑色の三角印をクリックして隣りの地図に切り替え


METAR-TAF: